Time;durP1;ratioP1;P1;durP2;ratioP2;P2;SDS_P1;SDS_P2;PMS_P1;PMS_P2;Temp;Humidity;BMP_temperature;BMP_pressure;BME280_temperature;BME280_humidity;BME280_pressure;Samples;Min_cycle;Max_cycle;Signal;HPM_P1;HPM_P2
2022/12/10 00:00:24;;;;;;;38.80;16.55;;;-0.10;99.90;;;;;;5070763;28;20072;-68
2022/12/10 00:02:50;;;;;;;32.83;15.88;;;-0.10;99.90;;;;;;5070758;28;20044;-69
2022/12/10 00:05:15;;;;;;;37.38;16.88;;;-0.10;99.90;;;;;;5069990;28;20090;-69
2022/12/10 00:07:41;;;;;;;33.30;15.77;;;0.00;99.90;;;;;;5052501;28;20049;-69
2022/12/10 00:10:07;;;;;;;35.30;16.98;;;-0.10;99.90;;;;;;5074293;28;20497;-68
2022/12/10 00:12:32;;;;;;;36.85;16.30;;;-0.10;99.90;;;;;;5074522;28;20459;-69
2022/12/10 00:14:58;;;;;;;44.10;17.00;;;-0.10;99.90;;;;;;5055750;28;20076;-69
2022/12/10 00:17:23;;;;;;;36.53;16.27;;;-0.20;99.90;;;;;;5074575;28;20481;-69
2022/12/10 00:19:49;;;;;;;36.10;16.52;;;-0.10;99.90;;;;;;5074164;28;20390;-69
2022/12/10 00:22:14;;;;;;;39.53;17.17;;;-0.20;99.90;;;;;;5074271;28;20422;-71
2022/12/10 00:24:40;;;;;;;33.83;15.43;;;-0.20;99.90;;;;;;5074175;28;20029;-70
2022/12/10 00:27:05;;;;;;;36.85;16.73;;;-0.20;99.90;;;;;;5074260;28;20478;-71
2022/12/10 00:29:31;;;;;;;37.70;17.80;;;-0.20;99.90;;;;;;5074257;28;20044;-70
2022/12/10 00:31:57;;;;;;;38.92;17.48;;;-0.20;99.90;;;;;;5056473;28;20085;-71
2022/12/10 00:34:22;;;;;;;40.70;17.50;;;-0.30;99.90;;;;;;5073309;28;20052;-73
2022/12/10 00:36:49;;;;;;;37.65;17.40;;;-0.30;99.90;;;;;;5074089;28;20044;-71
2022/12/10 00:39:17;;;;;;;37.58;16.55;;;-0.20;99.90;;;;;;5073207;28;20094;-70
2022/12/10 00:41:43;;;;;;;34.85;16.15;;;-0.20;99.90;;;;;;5074054;28;20110;-71
2022/12/10 00:44:09;;;;;;;34.17;14.63;;;-0.10;99.90;;;;;;5073008;28;20036;-71
2022/12/10 00:46:35;;;;;;;39.70;16.08;;;-0.20;99.90;;;;;;5073913;28;20064;-71
2022/12/10 00:49:01;;;;;;;40.63;18.25;;;-0.20;99.90;;;;;;5073967;28;20493;-71
2022/12/10 00:51:27;;;;;;;36.90;17.20;;;-0.10;99.90;;;;;;5073871;28;20040;-71
2022/12/10 00:53:55;;;;;;;37.05;15.65;;;-0.10;99.90;;;;;;5073221;28;20097;-71
2022/12/10 00:56:23;;;;;;;44.70;17.05;;;0.00;99.90;;;;;;5073830;28;20120;-70
2022/12/10 00:58:49;;;;;;;47.35;18.25;;;0.00;99.90;;;;;;5073435;28;20048;-70
2022/12/10 01:01:22;;;;;;;41.25;18.27;;;0.10;99.90;;;;;;5073740;28;20397;-71
2022/12/10 01:03:51;;;;;;;43.17;17.65;;;0.10;99.90;;;;;;5072949;28;20392;-70
2022/12/10 01:06:22;;;;;;;41.05;16.80;;;0.10;99.90;;;;;;5073694;28;20032;-70
2022/12/10 01:08:49;;;;;;;39.67;18.40;;;0.20;99.90;;;;;;5073387;28;20588;-71
2022/12/10 01:11:17;;;;;;;50.33;21.00;;;0.20;99.90;;;;;;5073579;28;20075;-71
2022/12/10 01:13:43;;;;;;;40.55;18.05;;;0.20;99.90;;;;;;5073108;28;20080;-71
2022/12/10 01:16:10;;;;;;;42.30;17.50;;;0.20;99.90;;;;;;5073361;28;20111;-70
2022/12/10 01:18:36;;;;;;;43.13;18.63;;;0.20;99.90;;;;;;5073340;28;20124;-70
2022/12/10 01:21:08;;;;;;;48.67;19.27;;;0.20;99.90;;;;;;5073143;28;20566;-70
2022/12/10 01:23:36;;;;;;;46.22;18.35;;;0.20;99.90;;;;;;5073365;28;20044;-71
2022/12/10 01:26:04;;;;;;;42.42;18.33;;;0.30;99.90;;;;;;5072440;28;20048;-72
2022/12/10 01:28:35;;;;;;;40.00;17.80;;;0.30;99.90;;;;;;5073273;28;20037;-71
2022/12/10 01:31:06;;;;;;;41.25;17.73;;;0.30;99.90;;;;;;5073185;28;20082;-71
2022/12/10 01:33:33;;;;;;;46.15;17.98;;;0.30;99.90;;;;;;5073162;28;20467;-70
2022/12/10 01:36:07;;;;;;;40.95;17.70;;;0.30;99.90;;;;;;5072504;28;20076;-70
2022/12/10 01:38:33;;;;;;;39.47;17.30;;;0.30;99.90;;;;;;5072729;28;20810;-71
2022/12/10 01:41:00;;;;;;;40.85;18.08;;;0.30;99.90;;;;;;5073219;28;20040;-70
2022/12/10 01:43:26;;;;;;;43.05;18.98;;;0.40;99.90;;;;;;5071640;28;20140;-71
2022/12/10 01:45:52;;;;;;;39.75;16.63;;;0.30;99.90;;;;;;5072388;28;20112;-70
2022/12/10 01:48:17;;;;;;;45.28;18.73;;;0.30;99.90;;;;;;5072644;28;20565;-71
2022/12/10 01:50:43;;;;;;;52.95;20.52;;;0.40;99.90;;;;;;5073019;28;20056;-71
2022/12/10 01:53:09;;;;;;;44.88;18.35;;;0.40;99.90;;;;;;5072785;28;20036;-71
2022/12/10 01:55:42;;;;;;;47.22;19.60;;;0.40;99.90;;;;;;5070563;28;20129;-71
2022/12/10 01:58:08;;;;;;;49.63;19.38;;;0.40;99.90;;;;;;5072395;28;20040;-71
2022/12/10 02:00:41;;;;;;;47.60;19.48;;;0.40;99.90;;;;;;5072502;28;20469;-70
2022/12/10 02:03:17;;;;;;;49.28;18.60;;;0.40;99.90;;;;;;5072558;28;20032;-71
2022/12/10 02:05:52;;;;;;;45.58;19.08;;;0.30;99.90;;;;;;5071818;28;20044;-72
2022/12/10 02:08:49;;;;;;;46.17;20.88;;;0.50;99.90;;;;;;5072520;28;20053;-71
2022/12/10 02:11:22;;;;;;;54.10;20.15;;;0.30;99.90;;;;;;5072389;28;20040;-71
2022/12/10 02:14:03;;;;;;;47.03;18.98;;;0.40;99.90;;;;;;5071417;28;20040;-71
2022/12/10 02:16:40;;;;;;;43.58;19.63;;;0.40;99.90;;;;;;5072351;28;20047;-71
2022/12/10 02:19:12;;;;;;;45.80;20.20;;;0.30;99.90;;;;;;5072220;28;20115;-70
2022/12/10 02:21:42;;;;;;;49.70;20.37;;;0.30;99.90;;;;;;5072259;28;20119;-71
2022/12/10 02:24:11;;;;;;;48.15;21.48;;;0.30;99.90;;;;;;5071266;28;20218;-71
2022/12/10 02:26:48;;;;;;;50.22;20.27;;;0.20;99.90;;;;;;5072022;28;20048;-71
2022/12/10 02:29:18;;;;;;;51.10;21.77;;;0.20;99.90;;;;;;5072242;28;20041;-70
2022/12/10 02:32:15;;;;;;;44.08;18.33;;;0.20;99.90;;;;;;5070964;28;20549;-70
2022/12/10 02:34:49;;;;;;;45.17;19.20;;;0.30;99.90;;;;;;5062292;28;20083;-70
2022/12/10 02:37:20;;;;;;;43.67;19.42;;;0.20;99.90;;;;;;5070396;28;20051;-70
2022/12/10 02:39:53;;;;;;;50.10;19.97;;;0.10;99.90;;;;;;5070774;28;20036;-70
2022/12/10 02:42:21;;;;;;;46.30;18.13;;;0.10;99.90;;;;;;5071393;28;20775;-70
2022/12/10 02:44:49;;;;;;;46.92;19.05;;;0.10;99.90;;;;;;5071206;28;20060;-71
2022/12/10 02:47:17;;;;;;;52.40;21.23;;;0.10;99.90;;;;;;5071575;28;20378;-70
2022/12/10 02:49:46;;;;;;;50.25;22.10;;;0.10;99.90;;;;;;5071529;28;20044;-71
2022/12/10 02:52:13;;;;;;;49.15;20.55;;;0.10;99.90;;;;;;5071520;28;20054;-71
2022/12/10 02:54:44;;;;;;;56.63;21.83;;;0.10;99.90;;;;;;5070881;28;20041;-70
2022/12/10 02:57:10;;;;;;;46.42;19.63;;;0.00;99.90;;;;;;5071471;28;20064;-70
2022/12/10 02:59:45;;;;;;;57.38;22.52;;;-0.10;99.90;;;;;;5071274;28;20505;-71
2022/12/10 03:02:29;;;;;;;51.25;21.05;;;0.00;99.90;;;;;;5071493;28;20072;-70
2022/12/10 03:05:17;;;;;;;47.90;20.98;;;-0.10;99.90;;;;;;5070920;28;20119;-71
2022/12/10 03:07:57;;;;;;;50.08;22.40;;;-0.10;99.90;;;;;;5053469;28;20048;-71
2022/12/10 03:10:35;;;;;;;51.58;20.50;;;0.00;99.90;;;;;;5071433;28;20059;-71
2022/12/10 03:13:05;;;;;;;54.55;19.92;;;-0.20;99.90;;;;;;5071321;28;20102;-71
2022/12/10 03:15:34;;;;;;;48.97;20.48;;;-0.10;99.90;;;;;;5070568;28;20040;-70
2022/12/10 03:18:03;;;;;;;46.85;19.60;;;-0.10;99.90;;;;;;5070991;28;20039;-72
2022/12/10 03:20:32;;;;;;;45.10;19.00;;;-0.10;99.90;;;;;;5071267;28;20458;-70
2022/12/10 03:22:58;;;;;;;50.00;19.67;;;-0.10;99.90;;;;;;5070743;28;20048;-71
2022/12/10 03:25:27;;;;;;;52.20;21.25;;;-0.20;99.90;;;;;;5070417;28;20119;-71
2022/12/10 03:27:55;;;;;;;54.38;22.33;;;-0.20;99.90;;;;;;5070716;28;20050;-70
2022/12/10 03:30:22;;;;;;;46.88;20.13;;;-0.20;99.90;;;;;;5071155;28;20037;-70
2022/12/10 03:32:49;;;;;;;51.63;19.88;;;-0.30;99.90;;;;;;5070786;28;20094;-71
2022/12/10 03:35:17;;;;;;;54.58;22.30;;;-0.30;99.90;;;;;;5070463;28;20037;-71
2022/12/10 03:37:42;;;;;;;48.30;20.33;;;-0.30;99.90;;;;;;5070985;28;20043;-72
2022/12/10 03:40:10;;;;;;;55.60;22.30;;;-0.30;99.90;;;;;;5068887;28;20045;-72
2022/12/10 03:42:36;;;;;;;52.42;20.45;;;-0.20;99.90;;;;;;5070377;28;20036;-71
2022/12/10 03:45:03;;;;;;;53.10;21.98;;;-0.30;99.90;;;;;;5052272;28;20123;-70
2022/12/10 03:47:29;;;;;;;54.17;20.85;;;-0.20;99.90;;;;;;5070685;28;20058;-71
2022/12/10 03:49:54;;;;;;;53.13;21.60;;;-0.20;99.90;;;;;;5070653;28;20492;-72
2022/12/10 03:52:20;;;;;;;52.25;21.27;;;-0.20;99.90;;;;;;5071042;28;20037;-71
2022/12/10 03:54:45;;;;;;;53.67;22.00;;;-0.30;99.90;;;;;;5068770;28;20127;-72
2022/12/10 03:57:11;;;;;;;46.17;20.67;;;-0.30;99.90;;;;;;5070746;28;20051;-71
2022/12/10 03:59:37;;;;;;;54.90;22.35;;;-0.30;99.90;;;;;;5069044;28;20471;-72
2022/12/10 04:02:03;;;;;;;46.38;20.63;;;-0.30;99.90;;;;;;5070667;28;20062;-71
2022/12/10 04:04:28;;;;;;;50.75;21.95;;;-0.30;99.90;;;;;;5069822;28;20083;-70
2022/12/10 04:06:54;;;;;;;50.15;21.83;;;-0.30;99.90;;;;;;5070379;28;20068;-71
2022/12/10 04:09:19;;;;;;;59.35;21.05;;;-0.30;99.90;;;;;;5070519;28;20041;-71
2022/12/10 04:11:45;;;;;;;46.05;19.98;;;-0.40;99.90;;;;;;5070677;28;20474;-71
2022/12/10 04:16:56;;;;;;;55.08;22.70;;;-0.40;99.90;;;;;;5070654;28;20127;-70
2022/12/10 04:19:23;;;;;;;53.85;22.00;;;-0.40;99.90;;;;;;5070530;28;20123;-71
2022/12/10 04:27:27;;;;;;;54.67;21.02;;;-0.40;99.90;;;;;;5070388;28;20040;-70
2022/12/10 04:29:54;;;;;;;62.75;23.25;;;-0.40;99.90;;;;;;5068976;28;20093;-70
2022/12/10 04:32:21;;;;;;;43.97;19.65;;;-0.30;99.90;;;;;;5070302;28;20053;-70
2022/12/10 04:34:46;;;;;;;47.00;21.33;;;-0.40;99.90;;;;;;5068181;28;20048;-71
2022/12/10 04:37:12;;;;;;;56.78;22.95;;;-0.40;99.90;;;;;;5070353;28;20044;-71
2022/12/10 04:39:39;;;;;;;50.70;21.40;;;-0.50;99.90;;;;;;5067201;28;20047;-70
2022/12/10 04:42:05;;;;;;;50.38;22.52;;;-0.40;99.90;;;;;;5070274;28;20064;-70
2022/12/10 04:44:31;;;;;;;49.42;21.27;;;-0.50;99.90;;;;;;5069799;28;20036;-71
2022/12/10 04:46:56;;;;;;;55.92;20.25;;;-0.40;99.90;;;;;;5070429;28;20120;-71
2022/12/10 04:49:22;;;;;;;50.42;20.65;;;-0.40;99.90;;;;;;5070205;28;20056;-71
2022/12/10 04:51:48;;;;;;;53.88;20.58;;;-0.40;99.90;;;;;;5070215;28;20051;-72
2022/12/10 04:54:14;;;;;;;47.03;20.30;;;-0.40;99.90;;;;;;5069612;28;20048;-71
2022/12/10 04:56:40;;;;;;;52.08;20.95;;;-0.50;99.90;;;;;;5073626;28;20044;-71
2022/12/10 04:59:06;;;;;;;52.53;22.75;;;-0.50;99.90;;;;;;5072225;28;20075;-71
2022/12/10 05:01:33;;;;;;;48.92;20.27;;;-0.50;99.90;;;;;;5072329;28;20040;-72
2022/12/10 05:04:03;;;;;;;48.55;21.63;;;-0.50;99.90;;;;;;5072935;28;20044;-71
2022/12/10 05:06:30;;;;;;;52.58;21.73;;;-0.60;99.90;;;;;;5073359;28;20520;-71
2022/12/10 05:08:56;;;;;;;57.28;21.60;;;-0.60;99.90;;;;;;5073443;28;20041;-71
2022/12/10 05:11:26;;;;;;;52.88;21.95;;;-0.60;99.90;;;;;;5073627;28;20053;-71
2022/12/10 05:13:53;;;;;;;57.05;21.98;;;-0.60;99.90;;;;;;5072887;28;20036;-70
2022/12/10 05:16:20;;;;;;;50.63;21.30;;;-0.50;99.90;;;;;;5073509;28;20049;-70
2022/12/10 05:18:46;;;;;;;53.05;22.67;;;-0.60;99.90;;;;;;5073404;28;20051;-71
2022/12/10 05:21:14;;;;;;;51.58;20.02;;;-0.50;99.90;;;;;;5073603;28;20040;-71
2022/12/10 05:23:45;;;;;;;54.63;21.13;;;-0.50;99.90;;;;;;5073063;28;20083;-71
2022/12/10 05:26:12;;;;;;;48.20;21.52;;;-0.60;99.90;;;;;;5073526;28;20412;-71
2022/12/10 05:28:44;;;;;;;57.47;22.00;;;-0.60;99.90;;;;;;5073496;28;20075;-71
2022/12/10 05:31:14;;;;;;;52.78;20.35;;;-0.60;99.90;;;;;;5072101;28;20159;-70
2022/12/10 05:33:40;;;;;;;56.67;21.40;;;-0.60;99.90;;;;;;5073021;28;20404;-70
2022/12/10 05:36:07;;;;;;;53.78;21.73;;;-0.70;99.90;;;;;;5072738;28;20044;-70
2022/12/10 05:38:33;;;;;;;55.45;22.27;;;-0.70;99.90;;;;;;5069646;28;20094;-70
2022/12/10 05:41:07;;;;;;;54.45;20.42;;;-0.60;99.90;;;;;;5073091;28;20040;-71
2022/12/10 05:43:33;;;;;;;54.75;21.55;;;-0.60;99.90;;;;;;5072718;28;20513;-72
2022/12/10 05:46:08;;;;;;;59.05;20.60;;;-0.60;99.90;;;;;;5072175;28;20051;-70
2022/12/10 05:48:34;;;;;;;50.30;21.85;;;-0.60;99.90;;;;;;5072745;28;20080;-70
2022/12/10 05:51:11;;;;;;;48.67;19.63;;;-0.60;99.90;;;;;;5072897;28;20051;-70
2022/12/10 05:53:37;;;;;;;53.75;22.15;;;-0.60;99.90;;;;;;5072950;28;20123;-70
2022/12/10 05:56:11;;;;;;;53.70;21.45;;;-0.60;99.90;;;;;;5071972;28;20493;-71
2022/12/10 05:58:37;;;;;;;57.63;22.92;;;-0.70;99.90;;;;;;5072511;28;20037;-70
2022/12/10 06:01:08;;;;;;;60.80;23.40;;;-0.70;99.90;;;;;;5072454;28;20047;-70
2022/12/10 06:03:34;;;;;;;56.50;20.58;;;-0.70;99.90;;;;;;5071130;28;20416;-70
2022/12/10 06:05:59;;;;;;;58.47;21.73;;;-0.80;99.90;;;;;;5070664;28;20111;-71
2022/12/10 06:08:25;;;;;;;55.25;19.77;;;-0.90;99.90;;;;;;5072488;28;20040;-71
2022/12/10 06:10:51;;;;;;;66.15;22.30;;;-0.80;99.90;;;;;;5072628;28;20489;-70
2022/12/10 06:13:16;;;;;;;43.70;19.70;;;-0.80;99.90;;;;;;5054576;28;20045;-70
2022/12/10 06:15:42;;;;;;;50.13;21.08;;;-0.90;99.90;;;;;;5071481;28;20044;-71
2022/12/10 06:18:08;;;;;;;54.50;21.30;;;-1.00;99.90;;;;;;5072401;28;20048;-72
2022/12/10 06:20:34;;;;;;;51.03;20.70;;;-1.00;99.90;;;;;;5072145;28;20036;-70
2022/12/10 06:22:59;;;;;;;55.08;21.02;;;-0.90;99.90;;;;;;5072380;28;20039;-70
2022/12/10 06:25:25;;;;;;;59.08;21.85;;;-0.90;99.90;;;;;;5071438;28;20028;-70
2022/12/10 06:27:50;;;;;;;49.97;19.60;;;-0.90;99.90;;;;;;5071994;28;20033;-71
2022/12/10 06:30:16;;;;;;;49.53;20.98;;;-0.90;99.90;;;;;;5071765;28;20052;-71
2022/12/10 06:32:44;;;;;;;55.33;23.35;;;-0.90;99.90;;;;;;5071823;28;20047;-71
2022/12/10 06:35:10;;;;;;;46.47;20.50;;;-0.90;99.90;;;;;;5070948;28;20481;-70
2022/12/10 06:37:36;;;;;;;58.40;22.70;;;-1.10;99.90;;;;;;5071844;28;20119;-71
2022/12/10 06:40:03;;;;;;;57.33;22.00;;;-0.90;99.90;;;;;;5071555;28;20489;-71
2022/12/10 06:42:29;;;;;;;52.22;23.10;;;-0.90;99.90;;;;;;5071885;28;20040;-71
2022/12/10 06:44:55;;;;;;;60.65;23.55;;;-0.90;99.90;;;;;;5070805;28;20042;-70
2022/12/10 06:47:20;;;;;;;48.80;20.48;;;-0.90;99.90;;;;;;5071706;28;20123;-73
2022/12/10 06:49:46;;;;;;;50.25;22.17;;;-0.90;99.90;;;;;;5071590;28;20409;-71
2022/12/10 06:52:11;;;;;;;60.22;23.17;;;-0.90;99.90;;;;;;5071615;28;20051;-71
2022/12/10 06:54:37;;;;;;;55.30;22.00;;;-0.90;99.90;;;;;;5070632;28;20044;-70
2022/12/10 06:57:03;;;;;;;49.88;21.70;;;-1.00;99.90;;;;;;5071291;28;20041;-71
2022/12/10 06:59:28;;;;;;;59.03;22.88;;;-1.00;99.90;;;;;;5071063;28;20039;-72
2022/12/10 07:01:54;;;;;;;58.05;22.63;;;-1.00;99.90;;;;;;5071485;28;20489;-71
2022/12/10 07:04:19;;;;;;;57.42;22.88;;;-1.00;99.90;;;;;;5070494;28;20049;-71
2022/12/10 07:06:45;;;;;;;52.15;19.80;;;-1.00;99.90;;;;;;5071293;28;20036;-71
2022/12/10 07:09:10;;;;;;;63.28;21.55;;;-1.10;99.90;;;;;;5071475;28;20401;-72
2022/12/10 07:11:36;;;;;;;56.08;22.13;;;-1.10;99.90;;;;;;5071298;28;20044;-71
2022/12/10 07:14:02;;;;;;;59.45;21.80;;;-1.10;99.90;;;;;;5070627;28;20041;-71
2022/12/10 07:16:30;;;;;;;52.83;20.90;;;-1.10;99.90;;;;;;5070981;28;20052;-71
2022/12/10 07:18:59;;;;;;;59.65;23.13;;;-1.10;99.90;;;;;;5070850;28;20048;-71
2022/12/10 07:21:27;;;;;;;53.78;21.55;;;-1.00;99.90;;;;;;5071091;28;20451;-71
2022/12/10 07:23:57;;;;;;;61.97;24.45;;;-1.00;99.90;;;;;;5070440;28;20584;-71
2022/12/10 07:26:30;;;;;;;61.97;22.85;;;-0.90;99.90;;;;;;5065101;28;20044;-71
2022/12/10 07:28:55;;;;;;;;;;;-0.90;99.90;;;;;;5060727;28;20047;-71
2022/12/10 07:31:21;;;;;;;56.70;21.33;;;-0.90;99.90;;;;;;5061777;28;19920;-73
2022/12/10 07:33:48;;;;;;;57.53;24.23;;;-0.90;99.90;;;;;;5066694;28;20036;-72
2022/12/10 07:36:14;;;;;;;57.45;22.55;;;-0.90;99.90;;;;;;5070684;28;20036;-70
2022/12/10 07:38:40;;;;;;;64.28;23.73;;;-0.90;99.90;;;;;;5065600;28;20451;-71
2022/12/10 07:41:08;;;;;;;57.80;21.45;;;-0.80;99.90;;;;;;5068806;28;20059;-72
2022/12/10 07:43:38;;;;;;;58.17;22.08;;;-0.70;99.90;;;;;;5067318;28;20044;-72
2022/12/10 07:46:13;;;;;;;56.58;22.02;;;-0.70;99.90;;;;;;5069994;28;20044;-70
2022/12/10 07:48:40;;;;;;;55.67;21.85;;;-0.70;99.90;;;;;;5070913;28;20041;-70
2022/12/10 07:51:07;;;;;;;56.28;21.90;;;-0.70;99.90;;;;;;5070785;28;20045;-71
2022/12/10 07:53:33;;;;;;;56.00;21.25;;;-0.70;99.90;;;;;;5070990;28;20052;-70
2022/12/10 07:55:58;;;;;;;59.97;22.63;;;-0.70;99.90;;;;;;5070077;28;20051;-71
2022/12/10 07:58:24;;;;;;;60.05;24.17;;;-0.80;99.90;;;;;;5070642;28;20103;-71
2022/12/10 08:00:50;;;;;;;60.75;22.40;;;-0.80;99.90;;;;;;5052548;28;20457;-72
2022/12/10 08:03:15;;;;;;;55.72;22.77;;;-0.80;99.90;;;;;;5070866;28;20044;-71
2022/12/10 08:05:41;;;;;;;64.50;24.75;;;-0.80;99.90;;;;;;5069784;28;20101;-71
2022/12/10 08:08:07;;;;;;;62.42;23.45;;;-0.70;99.90;;;;;;5070589;28;20032;-71
2022/12/10 08:10:37;;;;;;;60.80;24.23;;;-0.70;99.90;;;;;;5070530;28;20381;-71
2022/12/10 08:13:03;;;;;;;59.17;22.48;;;-0.60;99.90;;;;;;5070433;28;20469;-70
2022/12/10 08:15:29;;;;;;;59.30;24.25;;;-0.70;99.90;;;;;;5069626;28;20493;-71
2022/12/10 08:17:55;;;;;;;51.60;21.67;;;-0.70;99.90;;;;;;5070568;28;20036;-70
2022/12/10 08:20:22;;;;;;;57.67;24.75;;;-0.70;99.90;;;;;;5070357;28;20051;-71
2022/12/10 08:22:48;;;;;;;55.67;23.38;;;-0.70;99.90;;;;;;5070432;28;20048;-71
2022/12/10 08:25:13;;;;;;;56.45;22.92;;;-0.60;99.90;;;;;;5069808;28;20032;-70
2022/12/10 08:27:39;;;;;;;56.78;23.42;;;-0.60;99.90;;;;;;5070443;28;20408;-70
2022/12/10 08:30:05;;;;;;;61.50;24.90;;;-0.60;99.90;;;;;;5072298;28;20058;-71
2022/12/10 08:32:31;;;;;;;58.90;24.27;;;-0.50;99.90;;;;;;5074332;28;20404;-71
2022/12/10 08:34:56;;;;;;;61.63;23.50;;;-0.50;99.90;;;;;;5073587;28;20037;-71
2022/12/10 08:37:22;;;;;;;60.00;22.65;;;-0.50;99.90;;;;;;5072647;28;20048;-70
2022/12/10 08:39:48;;;;;;;53.47;22.38;;;-0.60;99.90;;;;;;5072535;28;20400;-70
2022/12/10 08:42:13;;;;;;;61.72;23.00;;;-0.50;99.90;;;;;;5074226;28;20561;-70
2022/12/10 08:44:39;;;;;;;55.97;22.92;;;-0.50;99.90;;;;;;5073214;28;20094;-71
2022/12/10 08:47:04;;;;;;;55.67;22.92;;;-0.50;99.90;;;;;;5073638;28;20116;-71
2022/12/10 08:49:30;;;;;;;59.10;23.35;;;-0.50;99.90;;;;;;5074107;28;20036;-71
2022/12/10 08:51:55;;;;;;;62.30;24.17;;;-0.50;99.90;;;;;;5073952;28;20040;-71
2022/12/10 08:54:21;;;;;;;58.88;24.45;;;-0.40;99.90;;;;;;5073328;28;20090;-71
2022/12/10 08:56:47;;;;;;;59.33;24.10;;;-0.50;99.90;;;;;;5073709;28;20190;-71
2022/12/10 08:59:13;;;;;;;55.28;21.85;;;-0.40;99.90;;;;;;5073400;28;20100;-70
2022/12/10 09:01:38;;;;;;;52.97;21.77;;;-0.40;99.90;;;;;;5073632;28;20095;-70
2022/12/10 09:04:04;;;;;;;52.05;21.50;;;-0.50;99.90;;;;;;5072872;28;20529;-70
2022/12/10 09:06:30;;;;;;;57.75;22.17;;;-0.50;99.90;;;;;;5073286;28;20075;-71
2022/12/10 09:08:56;;;;;;;58.08;23.85;;;-0.40;99.90;;;;;;5073763;28;20036;-71
2022/12/10 09:11:26;;;;;;;66.80;25.35;;;-0.40;99.90;;;;;;5072108;28;20047;-71
2022/12/10 09:13:52;;;;;;;64.25;25.10;;;-0.30;99.90;;;;;;5073165;28;20078;-72
2022/12/10 09:16:18;;;;;;;63.25;24.02;;;-0.30;99.90;;;;;;5073554;28;20040;-71
2022/12/10 09:18:44;;;;;;;55.17;22.30;;;-0.30;99.90;;;;;;5073556;28;20044;-70
2022/12/10 09:21:12;;;;;;;57.85;22.08;;;-0.20;99.90;;;;;;5073345;28;20033;-70
2022/12/10 09:23:38;;;;;;;64.90;25.63;;;-0.20;99.90;;;;;;5073297;28;20036;-72
2022/12/10 09:26:09;;;;;;;55.15;24.50;;;-0.20;99.90;;;;;;5072414;28;20041;-71
2022/12/10 09:28:36;;;;;;;60.03;25.20;;;-0.20;99.90;;;;;;5073397;28;20098;-71
2022/12/10 09:31:02;;;;;;;52.95;22.70;;;0.00;99.90;;;;;;5073172;28;20411;-70
2022/12/10 09:33:28;;;;;;;63.65;24.20;;;-0.10;99.90;;;;;;5073290;28;20037;-70
2022/12/10 09:35:54;;;;;;;57.85;24.45;;;0.00;99.90;;;;;;5071255;28;20072;-70
2022/12/10 09:38:20;;;;;;;59.10;24.17;;;0.10;99.90;;;;;;5073176;28;20524;-70
2022/12/10 09:41:10;;;;;;;62.50;24.35;;;0.00;99.90;;;;;;5072879;28;20036;-71
2022/12/10 09:43:35;;;;;;;61.55;24.38;;;0.00;99.90;;;;;;5073157;28;20443;-70
2022/12/10 09:46:43;;;;;;;55.22;23.08;;;0.00;99.90;;;;;;5072043;28;20036;-70
2022/12/10 09:49:20;;;;;;;57.47;21.95;;;0.10;99.90;;;;;;5072955;28;20040;-70
2022/12/10 09:51:46;;;;;;;58.70;23.45;;;0.10;99.90;;;;;;5072951;28;20040;-70
2022/12/10 09:54:40;;;;;;;57.55;24.70;;;0.20;99.90;;;;;;5072186;28;20389;-70
2022/12/10 09:57:10;;;;;;;62.55;24.83;;;0.20;99.90;;;;;;5071609;28;20052;-71
2022/12/10 09:59:42;;;;;;;54.92;24.08;;;0.20;99.90;;;;;;5072320;28;20077;-70
2022/12/10 10:02:20;;;;;;;60.20;25.42;;;0.20;99.90;;;;;;5072370;28;20586;-70
2022/12/10 10:04:47;;;;;;;61.30;23.30;;;0.20;99.90;;;;;;5072027;28;20405;-71
2022/12/10 10:07:21;;;;;;;57.83;24.90;;;0.30;99.90;;;;;;5072369;28;20040;-70
2022/12/10 10:09:46;;;;;;;59.58;23.58;;;0.20;99.90;;;;;;5073123;28;20044;-71
2022/12/10 10:12:15;;;;;;;60.88;24.92;;;0.20;99.90;;;;;;5072724;28;20044;-70
2022/12/10 10:14:43;;;;;;;62.88;25.38;;;0.20;99.90;;;;;;5072543;28;20480;-71
2022/12/10 10:17:46;;;;;;;61.72;24.35;;;0.30;99.90;;;;;;5073075;28;20048;-70
2022/12/10 10:20:13;;;;;;;60.60;23.95;;;0.20;99.90;;;;;;5030411;28;20460;-69
2022/12/10 10:22:40;;;;;;;66.88;26.77;;;0.30;99.90;;;;;;5030693;28;20522;-71
2022/12/10 10:25:16;;;;;;;63.92;25.10;;;0.30;99.90;;;;;;5029589;28;20435;-70
2022/12/10 10:27:41;;;;;;;64.25;25.95;;;0.30;99.90;;;;;;5030371;28;20053;-70
2022/12/10 10:30:16;;;;;;;62.38;24.98;;;0.30;99.90;;;;;;5029854;28;20128;-70
2022/12/10 10:32:41;;;;;;;65.45;27.75;;;0.30;99.90;;;;;;5029526;28;20470;-70
2022/12/10 10:35:18;;;;;;;68.20;26.63;;;0.30;99.90;;;;;;5028725;28;20087;-71
2022/12/10 10:37:44;;;;;;;70.82;26.42;;;0.40;99.90;;;;;;5029405;28;20060;-70
2022/12/10 10:40:33;;;;;;;59.95;26.02;;;0.40;99.90;;;;;;5027435;28;20037;-71
2022/12/10 10:43:00;;;;;;;52.05;22.45;;;0.40;99.90;;;;;;5029351;28;20057;-70
2022/12/10 10:45:49;;;;;;;71.00;24.98;;;0.40;99.90;;;;;;5028581;28;20037;-71
2022/12/10 10:48:21;;;;;;;59.63;24.90;;;0.40;99.90;;;;;;5029121;28;20414;-70
2022/12/10 10:50:49;;;;;;;58.45;22.75;;;0.30;99.90;;;;;;5029283;28;20095;-70
2022/12/10 10:53:26;;;;;;;52.22;21.70;;;0.30;99.90;;;;;;5034056;28;20110;-71
2022/12/10 10:55:54;;;;;;;56.97;21.67;;;0.20;99.90;;;;;;5071042;28;20726;-69
2022/12/10 10:58:21;;;;;;;60.85;23.52;;;0.20;99.90;;;;;;5071125;28;20179;-70
2022/12/10 11:01:06;;;;;;;56.60;22.92;;;0.20;99.90;;;;;;5071599;28;20369;-69
2022/12/10 11:03:34;;;;;;;59.33;21.60;;;0.20;99.90;;;;;;5071558;28;20044;-70
2022/12/10 11:06:04;;;;;;;62.38;24.50;;;0.10;99.90;;;;;;5070788;28;20051;-69
2022/12/10 11:08:31;;;;;;;63.67;23.05;;;0.20;99.90;;;;;;5071311;28;20040;-70
2022/12/10 11:11:06;;;;;;;67.95;22.67;;;0.20;99.90;;;;;;5071372;28;20036;-70
2022/12/10 11:13:35;;;;;;;59.50;22.80;;;0.20;99.90;;;;;;5071384;28;20040;-70
2022/12/10 11:16:20;;;;;;;60.70;23.17;;;0.30;99.90;;;;;;5070826;28;20079;-69
2022/12/10 11:19:02;;;;;;;59.92;20.75;;;0.20;99.90;;;;;;5071286;28;20048;-70
2022/12/10 11:21:29;;;;;;;69.43;23.35;;;0.20;99.90;;;;;;5071363;28;20374;-70
2022/12/10 11:23:56;;;;;;;63.08;22.05;;;0.20;99.90;;;;;;5070133;28;20041;-70
2022/12/10 11:26:51;;;;;;;59.30;24.30;;;0.10;99.90;;;;;;5071012;28;20052;-72
2022/12/10 11:29:56;;;;;;;55.38;22.17;;;0.20;99.90;;;;;;5071010;28;20048;-71
2022/12/10 11:32:57;;;;;;;58.22;22.38;;;0.20;99.90;;;;;;5070793;28;20455;-70
2022/12/10 11:35:39;;;;;;;61.13;23.55;;;0.20;99.90;;;;;;5070424;28;20041;-72
2022/12/10 11:38:14;;;;;;;60.10;23.70;;;0.20;99.90;;;;;;5070784;28;20048;-70
2022/12/10 11:41:02;;;;;;;62.70;22.45;;;0.30;99.90;;;;;;5071041;28;20055;-70
2022/12/10 11:43:39;;;;;;;61.10;24.48;;;0.20;99.90;;;;;;5070497;28;20504;-71
2022/12/10 11:46:16;;;;;;;64.28;24.83;;;0.20;99.90;;;;;;5070455;28;20105;-70
2022/12/10 11:48:55;;;;;;;64.60;22.85;;;0.10;99.90;;;;;;5070615;28;20059;-70
2022/12/10 11:51:46;;;;;;;59.58;23.27;;;0.20;99.90;;;;;;5070978;28;20088;-69
2022/12/10 11:54:43;;;;;;;57.65;23.20;;;0.20;99.90;;;;;;5064952;28;20052;-70
2022/12/10 11:57:41;;;;;;;63.80;23.58;;;0.20;99.90;;;;;;5070500;28;20051;-70
2022/12/10 12:00:20;;;;;;;71.50;25.25;;;0.20;99.90;;;;;;5070486;28;20408;-70
2022/12/10 12:03:18;;;;;;;71.28;26.23;;;0.30;99.90;;;;;;5070852;28;20037;-70
2022/12/10 12:05:54;;;;;;;62.90;24.55;;;0.20;99.90;;;;;;5068158;28;20045;-70
2022/12/10 12:08:42;;;;;;;65.93;24.17;;;0.30;99.90;;;;;;5074840;28;20037;-70
2022/12/10 12:11:27;;;;;;;69.65;25.77;;;0.20;99.90;;;;;;5074738;28;20045;-70
2022/12/10 12:14:13;;;;;;;62.10;23.70;;;0.30;99.90;;;;;;5073976;28;20576;-70
2022/12/10 12:16:45;;;;;;;70.65;24.40;;;0.30;99.90;;;;;;5074672;28;20380;-70
2022/12/10 12:19:17;;;;;;;69.70;26.47;;;0.30;99.90;;;;;;5074695;28;20394;-70
2022/12/10 12:21:45;;;;;;;71.80;25.67;;;0.30;99.90;;;;;;5074771;28;20040;-70
2022/12/10 12:24:29;;;;;;;66.10;25.85;;;0.40;99.90;;;;;;5073825;28;20041;-70
2022/12/10 12:27:08;;;;;;;76.25;25.73;;;0.40;99.90;;;;;;5074408;28;20040;-71
2022/12/10 12:29:54;;;;;;;70.80;23.15;;;0.50;99.90;;;;;;5074503;28;20390;-70
2022/12/10 12:32:31;;;;;;;63.70;22.88;;;0.40;99.90;;;;;;5074301;28;20044;-70
2022/12/10 12:35:06;;;;;;;69.40;25.17;;;0.40;99.90;;;;;;5073644;28;20041;-70
2022/12/10 12:37:59;;;;;;;67.68;26.92;;;0.40;99.90;;;;;;5074323;28;20041;-70
2022/12/10 12:40:41;;;;;;;64.35;23.60;;;0.40;99.90;;;;;;5069664;28;20148;-70
2022/12/10 12:43:14;;;;;;;65.63;23.48;;;0.50;99.90;;;;;;5074020;28;20037;-70
2022/12/10 12:45:52;;;;;;;69.80;26.10;;;0.50;99.90;;;;;;5073547;28;20071;-71
2022/12/10 12:48:53;;;;;;;56.13;23.95;;;0.50;99.90;;;;;;5072541;28;20106;-71
2022/12/10 12:51:38;;;;;;;62.25;22.88;;;0.60;99.90;;;;;;5031288;28;20049;-71
2022/12/10 12:54:04;;;;;;;50.95;22.20;;;0.50;99.90;;;;;;5030709;28;20119;-70